Comfrey, Minnesota
Current Conditions -  °F | °C
As of 7:14 AM on Sunday 23 Nov 2014 (Local Time) from KMWM Reporting Station
Haze Haze  
Wind Chill: 45°   Ceiling: 300
Heat Index: 48°   Visibility: 3mi
Dew Point: 48°   Wind: 8mph
Humidity: 100%   Direction: 240°WSW
Pressure: 29.44"   Gusts: NA
Location:  44.11°N, 94.9°W
Report Text: KMWM 231314Z AUTO 24007KT 3SM BR OVC003 09/09 A2944 RMK AO2
Loading
Personal Weather Stations






























Interactive Weather Map New forecast layout! Learn more

10-Day Weather Forecast

Advertisements
Track Severe Weather on mobile